createdAt,value
2023-04-01T00:00:30.903Z,2.41
2023-04-01T00:01:30.913Z,2.80
2023-04-01T00:02:31.000Z,3.12
2023-04-01T00:03:31.080Z,2.61
2023-04-01T00:04:30.963Z,2.99
2023-04-01T00:05:31.319Z,2.78
2023-04-01T00:06:30.969Z,2.61
2023-04-01T00:07:31.050Z,3.24
2023-04-01T00:08:30.982Z,2.88
2023-04-01T00:09:31.034Z,2.25
2023-04-01T00:10:31.025Z,2.23
2023-04-01T00:11:31.033Z,2.77
2023-04-01T00:12:31.102Z,2.89
2023-04-01T00:13:31.097Z,2.29
2023-04-01T00:14:31.143Z,2.53
2023-04-01T00:15:31.410Z,2.68
2023-04-01T00:16:31.210Z,2.61
2023-04-01T00:17:31.217Z,2.69
2023-04-01T00:18:31.209Z,2.52
2023-04-01T00:19:31.240Z,2.41
2023-04-01T00:20:31.249Z,2.17
2023-04-01T00:21:31.259Z,2.80
2023-04-01T00:22:31.304Z,2.09
2023-04-01T00:23:31.306Z,2.43
2023-04-01T00:24:31.334Z,2.32
2023-04-01T00:25:31.695Z,2.35
2023-04-01T00:26:31.341Z,2.27
2023-04-01T00:27:31.337Z,2.64
2023-04-01T00:28:31.336Z,2.44
2023-04-01T00:29:31.302Z,2.45
2023-04-01T00:30:31.324Z,2.44
2023-04-01T00:31:31.389Z,2.59
2023-04-01T00:32:31.376Z,2.34
2023-04-01T00:33:31.365Z,2.73
2023-04-01T00:34:31.366Z,2.27
2023-04-01T00:35:31.647Z,2.28
2023-04-01T00:36:31.477Z,2.80
2023-04-01T00:37:31.421Z,2.67
2023-04-01T00:38:31.432Z,2.44
2023-04-01T00:39:31.478Z,2.21
2023-04-01T00:40:31.447Z,2.32
2023-04-01T00:41:31.455Z,2.61
2023-04-01T00:42:31.436Z,2.10
2023-04-01T00:43:31.474Z,2.01
2023-04-01T00:44:31.496Z,2.22
2023-04-01T00:45:31.900Z,2.48
2023-04-01T00:46:31.524Z,2.46
2023-04-01T00:47:31.551Z,2.23
2023-04-01T00:48:31.509Z,2.15
2023-04-01T00:49:31.533Z,2.23
2023-04-01T00:50:31.534Z,2.32
2023-04-01T00:51:31.596Z,2.55
2023-04-01T00:52:31.579Z,2.34
2023-04-01T00:53:31.592Z,2.31
2023-04-01T00:54:31.614Z,2.22
2023-04-01T00:55:31.836Z,2.42
2023-04-01T00:56:31.621Z,2.23
2023-04-01T00:57:31.695Z,2.27
2023-04-01T00:58:31.654Z,2.38
2023-04-01T00:59:31.672Z,2.45
2023-04-01T01:00:31.718Z,2.10
2023-04-01T01:01:31.709Z,2.37
2023-04-01T01:02:31.739Z,2.35
2023-04-01T01:03:31.772Z,1.86
2023-04-01T01:04:31.697Z,2.72
2023-04-01T01:06:31.711Z,2.15
2023-04-01T01:07:31.723Z,2.29
2023-04-01T01:08:31.725Z,2.25
2023-04-01T01:09:31.738Z,2.04
2023-04-01T01:10:31.699Z,1.96
2023-04-01T01:12:31.716Z,1.91
2023-04-01T01:13:31.718Z,2.18
2023-04-01T01:14:31.699Z,2.14
2023-04-01T01:15:31.926Z,2.10
2023-04-01T01:16:31.796Z,2.43
2023-04-01T01:17:31.784Z,2.16
2023-04-01T01:18:31.749Z,2.12
2023-04-01T01:19:31.728Z,2.04
2023-04-01T01:20:31.758Z,2.19
2023-04-01T01:21:31.749Z,2.28
2023-04-01T01:22:31.725Z,2.43
2023-04-01T01:23:32.325Z,2.24
2023-04-01T01:24:31.745Z,2.34
2023-04-01T01:25:31.997Z,1.96
2023-04-01T01:26:31.761Z,2.32
2023-04-01T01:27:31.748Z,1.82
2023-04-01T01:28:31.777Z,2.10
2023-04-01T01:29:31.770Z,1.77
2023-04-01T01:30:31.766Z,2.19
2023-04-01T01:31:31.756Z,2.14
2023-04-01T01:32:31.808Z,1.93
2023-04-01T01:33:31.760Z,2.03
2023-04-01T01:34:31.807Z,2.40
2023-04-01T01:35:32.024Z,1.90
2023-04-01T01:36:31.826Z,1.89
2023-04-01T01:37:31.807Z,1.86
2023-04-01T01:38:31.830Z,1.87
2023-04-01T01:39:31.831Z,1.92
2023-04-01T01:40:31.845Z,1.91
2023-04-01T01:41:31.872Z,2.22
2023-04-01T01:42:31.850Z,1.84
2023-04-01T01:43:31.852Z,1.72
2023-04-01T01:44:31.864Z,2.27
2023-04-01T01:45:32.047Z,1.96
2023-04-01T01:46:32.061Z,2.07
2023-04-01T01:47:31.852Z,1.76
2023-04-01T01:48:31.844Z,1.75
2023-04-01T01:49:32.336Z,1.98
2023-04-01T01:50:31.845Z,1.57
2023-04-01T01:51:31.875Z,1.63
2023-04-01T01:52:31.848Z,1.83
2023-04-01T01:53:31.891Z,2.24
2023-04-01T01:54:31.855Z,1.84
2023-04-01T01:55:32.027Z,1.85
2023-04-01T01:56:31.935Z,1.85
2023-04-01T01:57:32.009Z,1.99
2023-04-01T01:58:31.981Z,1.88
2023-04-01T01:59:31.973Z,2.06
2023-04-01T02:00:31.996Z,2.56
2023-04-01T02:01:32.034Z,1.57
2023-04-01T02:02:32.008Z,2.00
2023-04-01T02:03:31.978Z,2.21
2023-04-01T02:04:32.110Z,2.19
2023-04-01T02:05:32.253Z,1.77
2023-04-01T02:06:32.036Z,2.18
2023-04-01T02:07:32.075Z,2.00
2023-04-01T02:08:32.055Z,2.07
2023-04-01T02:09:32.087Z,1.87
2023-04-01T02:10:32.072Z,1.86
2023-04-01T02:11:32.067Z,1.61
2023-04-01T02:12:32.115Z,2.20
2023-04-01T02:13:32.086Z,2.30
2023-04-01T02:14:32.119Z,1.88
2023-04-01T02:15:32.285Z,2.03
2023-04-01T02:16:32.156Z,1.98
2023-04-01T02:17:32.193Z,1.56
2023-04-01T02:18:32.123Z,1.86
2023-04-01T02:19:32.087Z,1.76
2023-04-01T02:20:32.098Z,1.77
2023-04-01T02:21:32.164Z,1.82
2023-04-01T02:22:32.128Z,1.72
2023-04-01T02:23:32.114Z,1.76
2023-04-01T02:24:32.147Z,1.96
2023-04-01T02:25:32.352Z,1.89
2023-04-01T02:26:32.150Z,1.76
2023-04-01T02:27:32.135Z,1.84
2023-04-01T02:28:32.150Z,1.93
2023-04-01T02:29:32.123Z,1.87
2023-04-01T02:30:32.141Z,2.12
2023-04-01T02:31:32.178Z,1.95
2023-04-01T02:32:32.235Z,1.95
2023-04-01T02:33:32.171Z,1.98
2023-04-01T02:34:32.188Z,1.77
2023-04-01T02:35:32.282Z,1.84
2023-04-01T02:36:32.164Z,1.79
2023-04-01T02:37:33.903Z,1.67
2023-04-01T02:38:32.148Z,1.75
2023-04-01T02:39:32.205Z,1.81
2023-04-01T02:40:32.193Z,1.80
2023-04-01T02:41:32.190Z,1.54
2023-04-01T02:42:32.226Z,1.91
2023-04-01T02:43:32.320Z,1.58
2023-04-01T02:44:32.344Z,1.76
2023-04-01T02:45:32.632Z,1.83
2023-04-01T02:46:32.482Z,1.52
2023-04-01T02:47:32.530Z,1.80
2023-04-01T02:48:32.573Z,1.58
2023-04-01T02:49:32.641Z,1.38
2023-04-01T02:50:32.682Z,1.64
2023-04-01T02:51:33.095Z,1.64
2023-04-01T02:52:32.807Z,1.61
2023-04-01T02:53:32.851Z,1.73
2023-04-01T02:54:32.919Z,1.15
2023-04-01T02:55:33.194Z,1.67
2023-04-01T02:56:33.036Z,1.91
2023-04-01T02:57:33.177Z,1.56
2023-04-01T02:58:33.180Z,1.55
2023-04-01T02:59:33.251Z,1.70
2023-04-01T03:00:33.303Z,1.44
2023-04-01T03:01:33.512Z,1.49
2023-04-01T03:02:33.476Z,1.41
2023-04-01T03:03:33.521Z,1.50
2023-04-01T03:04:33.458Z,1.78
2023-04-01T03:05:33.577Z,2.04
2023-04-01T03:06:33.503Z,1.34
2023-04-01T03:07:33.437Z,1.90
2023-04-01T03:08:33.494Z,1.44
2023-04-01T03:09:33.463Z,2.03
2023-04-01T03:10:33.460Z,1.66
2023-04-01T03:11:33.472Z,1.41
2023-04-01T03:12:33.493Z,1.71
2023-04-01T03:13:33.493Z,1.75
2023-04-01T03:14:33.511Z,1.65
2023-04-01T03:15:33.755Z,1.60
2023-04-01T03:16:33.511Z,1.66
2023-04-01T03:17:33.565Z,1.53
2023-04-01T03:18:34.375Z,1.52
2023-04-01T03:19:33.516Z,1.78
2023-04-01T03:20:33.500Z,1.71
2023-04-01T03:21:33.497Z,1.85
2023-04-01T03:22:33.504Z,1.58
2023-04-01T03:23:33.477Z,1.57
2023-04-01T03:24:33.520Z,1.91
2023-04-01T03:25:33.617Z,1.72
2023-04-01T03:26:33.501Z,1.41
2023-04-01T03:27:33.534Z,1.23
2023-04-01T03:28:33.541Z,1.62
2023-04-01T03:29:33.570Z,1.64
2023-04-01T03:30:33.547Z,1.83
2023-04-01T03:31:33.641Z,1.60
2023-04-01T03:32:33.583Z,1.91
2023-04-01T03:33:33.552Z,1.62
2023-04-01T03:34:33.552Z,1.63
2023-04-01T03:35:33.731Z,1.63
2023-04-01T03:36:33.550Z,1.52
2023-04-01T03:37:33.532Z,1.40
2023-04-01T03:38:33.534Z,1.23
2023-04-01T03:39:33.565Z,1.37
2023-04-01T03:40:33.549Z,1.99
2023-04-01T03:41:33.565Z,1.52
2023-04-01T03:42:33.616Z,1.32
2023-04-01T03:43:33.575Z,1.64
2023-04-01T03:44:33.587Z,1.41
2023-04-01T03:45:33.851Z,1.44
2023-04-01T03:46:33.607Z,1.62
2023-04-01T03:47:33.624Z,1.38
2023-04-01T03:48:33.574Z,1.42
2023-04-01T03:49:33.624Z,1.20
2023-04-01T03:50:33.598Z,1.63
2023-04-01T03:51:33.569Z,1.81
2023-04-01T03:52:33.592Z,1.60
2023-04-01T03:53:33.618Z,1.36
2023-04-01T03:54:33.611Z,1.54
2023-04-01T03:55:33.910Z,1.63
2023-04-01T03:56:33.600Z,1.71
2023-04-01T03:57:33.657Z,1.51
2023-04-01T03:58:34.408Z,1.43
2023-04-01T03:59:33.661Z,1.64
2023-04-01T04:00:33.657Z,1.73
2023-04-01T04:01:33.654Z,1.70
2023-04-01T04:02:33.723Z,1.56
2023-04-01T04:03:33.753Z,1.67
2023-04-01T04:04:33.749Z,1.73
2023-04-01T04:05:33.914Z,1.38
2023-04-01T04:06:33.707Z,1.62
2023-04-01T04:07:33.664Z,1.76
2023-04-01T04:08:33.685Z,1.51
2023-04-01T04:09:33.690Z,1.48
2023-04-01T04:10:33.733Z,1.41
2023-04-01T04:11:33.702Z,1.82
2023-04-01T04:12:33.708Z,1.49
2023-04-01T04:13:33.745Z,1.58
2023-04-01T04:14:33.758Z,1.72
2023-04-01T04:15:33.979Z,1.27
2023-04-01T04:16:33.754Z,1.60
2023-04-01T04:17:33.761Z,1.59
2023-04-01T04:18:33.728Z,1.43
2023-04-01T04:19:33.750Z,1.43
2023-04-01T04:20:33.748Z,1.39
2023-04-01T04:21:33.759Z,1.43
2023-04-01T04:22:33.762Z,1.77
2023-04-01T04:23:33.746Z,1.85
2023-04-01T04:24:33.756Z,1.67
2023-04-01T04:25:34.003Z,1.36
2023-04-01T04:26:33.761Z,1.52
2023-04-01T04:27:33.754Z,1.49
2023-04-01T04:28:33.755Z,1.84
2023-04-01T04:29:33.752Z,1.36
2023-04-01T04:30:33.754Z,1.59
2023-04-01T04:31:33.916Z,1.81
2023-04-01T04:32:33.856Z,1.52
2023-04-01T04:33:33.782Z,1.48
2023-04-01T04:34:33.784Z,1.22
2023-04-01T04:35:33.939Z,1.73
2023-04-01T04:36:33.776Z,1.53
2023-04-01T04:37:33.813Z,2.25
2023-04-01T04:38:33.817Z,1.53
2023-04-01T04:39:33.823Z,1.26
2023-04-01T04:40:33.800Z,1.31
2023-04-01T04:41:35.913Z,1.85
2023-04-01T04:42:33.800Z,1.74
2023-04-01T04:43:33.786Z,1.52
2023-04-01T04:44:33.794Z,1.70
2023-04-01T04:45:33.986Z,1.52
2023-04-01T04:46:33.762Z,1.66
2023-04-01T04:47:33.810Z,1.60
2023-04-01T04:48:33.760Z,1.51
2023-04-01T04:49:33.729Z,1.47
2023-04-01T04:50:33.725Z,1.48
2023-04-01T04:51:33.721Z,1.66
2023-04-01T04:52:33.732Z,2.10
2023-04-01T04:53:33.711Z,2.05
2023-04-01T04:54:33.693Z,1.93
2023-04-01T04:55:33.875Z,1.94
2023-04-01T04:56:33.717Z,1.46
2023-04-01T04:57:33.829Z,1.82
2023-04-01T04:58:33.689Z,1.83
2023-04-01T04:59:33.668Z,1.70
2023-04-01T05:00:33.660Z,1.75
2023-04-01T05:01:33.698Z,2.15
2023-04-01T05:02:33.712Z,1.81
2023-04-01T05:03:33.870Z,1.94
2023-04-01T05:04:33.646Z,2.11
2023-04-01T05:05:33.823Z,2.03
2023-04-01T05:06:33.617Z,1.93
2023-04-01T05:07:33.612Z,2.02
2023-04-01T05:08:34.437Z,2.06
2023-04-01T05:09:33.614Z,2.18
2023-04-01T05:10:33.600Z,1.48
2023-04-01T05:11:33.552Z,2.30
2023-04-01T05:12:33.589Z,1.46
2023-04-01T05:13:33.581Z,1.63
2023-04-01T05:14:33.557Z,1.67
2023-04-01T05:15:33.759Z,2.09
2023-04-01T05:16:33.582Z,2.12
2023-04-01T05:17:33.567Z,2.01
2023-04-01T05:18:33.552Z,2.16
2023-04-01T05:19:33.534Z,1.89
2023-04-01T05:20:33.533Z,1.93
2023-04-01T05:21:33.499Z,2.43
2023-04-01T05:22:33.511Z,2.19
2023-04-01T05:23:33.491Z,1.81
2023-04-01T05:24:33.514Z,2.15
2023-04-01T05:25:33.596Z,2.10
2023-04-01T05:26:33.467Z,1.95
2023-04-01T05:27:33.452Z,2.27
2023-04-01T05:28:33.473Z,2.06
2023-04-01T05:29:33.463Z,1.84
2023-04-01T05:30:33.464Z,2.50
2023-04-01T05:31:33.449Z,2.12
2023-04-01T05:32:33.456Z,2.02
2023-04-01T05:33:33.450Z,1.96
2023-04-01T05:34:33.426Z,2.32
2023-04-01T05:35:33.858Z,2.38
2023-04-01T05:36:33.406Z,2.51
2023-04-01T05:37:33.396Z,1.80
2023-04-01T05:38:33.418Z,2.77
2023-04-01T05:39:33.415Z,1.85
2023-04-01T05:40:33.373Z,2.33
2023-04-01T05:41:33.370Z,2.06
2023-04-01T05:42:33.725Z,2.13
2023-04-01T05:43:33.346Z,2.24
2023-04-01T05:44:33.351Z,2.47
2023-04-01T05:45:33.500Z,1.89
2023-04-01T05:46:33.393Z,2.11
2023-04-01T05:47:33.395Z,1.84
2023-04-01T05:48:33.314Z,1.98
2023-04-01T05:49:33.326Z,2.19
2023-04-01T05:50:33.325Z,2.15
2023-04-01T05:51:33.298Z,2.26
2023-04-01T05:52:33.291Z,2.18
2023-04-01T05:53:33.300Z,1.81
2023-04-01T05:54:33.269Z,2.05
2023-04-01T05:55:33.457Z,1.86
2023-04-01T05:56:33.244Z,2.43
2023-04-01T05:57:33.313Z,2.12
2023-04-01T05:58:33.271Z,2.08
2023-04-01T05:59:33.238Z,2.03
2023-04-01T06:00:33.240Z,2.28
2023-04-01T06:01:33.247Z,2.37
2023-04-01T06:02:33.290Z,2.18
2023-04-01T06:03:33.300Z,2.48
2023-04-01T06:04:33.251Z,1.88
2023-04-01T06:05:33.395Z,2.32
2023-04-01T06:06:33.177Z,2.02
2023-04-01T06:07:33.171Z,1.97
2023-04-01T06:08:33.175Z,2.08
2023-04-01T06:09:33.159Z,2.42
2023-04-01T06:10:33.146Z,2.31
2023-04-01T06:11:33.149Z,2.01
2023-04-01T06:12:33.150Z,2.56
2023-04-01T06:13:33.213Z,2.51
2023-04-01T06:14:33.131Z,2.58
2023-04-01T06:15:33.335Z,2.13
2023-04-01T06:16:33.188Z,2.08
2023-04-01T06:17:33.120Z,2.18
2023-04-01T06:18:33.112Z,2.88
2023-04-01T06:19:33.088Z,2.14
2023-04-01T06:20:33.097Z,1.99
2023-04-01T06:21:33.113Z,2.19
2023-04-01T06:22:33.135Z,2.17
2023-04-01T06:23:33.215Z,2.39
2023-04-01T06:24:33.289Z,2.29
2023-04-01T06:25:33.449Z,2.27
2023-04-01T06:26:33.364Z,2.18
2023-04-01T06:27:33.434Z,2.36
2023-04-01T06:28:33.465Z,2.46
2023-04-01T06:29:33.552Z,2.62
2023-04-01T06:30:33.580Z,2.97
2023-04-01T06:31:33.709Z,2.55
2023-04-01T06:32:33.831Z,2.30
2023-04-01T06:33:33.775Z,2.49
2023-04-01T06:34:33.764Z,2.40
2023-04-01T06:35:34.062Z,1.85
2023-04-01T06:36:33.785Z,2.22
2023-04-01T06:37:33.745Z,2.05
2023-04-01T06:38:33.749Z,1.89
2023-04-01T06:39:33.778Z,2.40
2023-04-01T06:40:33.797Z,2.15
2023-04-01T06:41:33.758Z,2.11
2023-04-01T06:42:33.774Z,2.63
2023-04-01T06:43:33.788Z,2.35
2023-04-01T06:44:33.776Z,1.96
2023-04-01T06:45:33.971Z,2.11
2023-04-01T06:46:33.781Z,2.27
2023-04-01T06:47:33.822Z,2.06
2023-04-01T06:48:33.825Z,2.06
2023-04-01T06:49:33.827Z,2.50
2023-04-01T06:50:33.811Z,2.22
2023-04-01T06:51:33.799Z,2.54
2023-04-01T06:52:33.787Z,2.45
2023-04-01T06:53:33.786Z,2.39
2023-04-01T06:54:33.819Z,1.97
2023-04-01T06:55:33.982Z,2.32
2023-04-01T06:56:33.807Z,2.30
2023-04-01T06:57:33.882Z,2.43
2023-04-01T06:58:33.923Z,2.21
2023-04-01T06:59:33.945Z,2.34
2023-04-01T07:00:34.013Z,2.23
2023-04-01T07:01:34.120Z,2.34
2023-04-01T07:02:34.109Z,2.21
2023-04-01T07:03:34.156Z,2.29
2023-04-01T07:04:34.167Z,2.15
2023-04-01T07:05:34.424Z,2.51
2023-04-01T07:06:34.202Z,2.29
2023-04-01T07:07:34.249Z,2.13
2023-04-01T07:08:34.309Z,2.16
2023-04-01T07:09:34.387Z,2.31
2023-04-01T07:10:34.413Z,2.16
2023-04-01T07:11:34.496Z,2.05
2023-04-01T07:12:34.520Z,2.32
2023-04-01T07:13:34.577Z,2.18
2023-04-01T07:14:34.670Z,2.42
2023-04-01T07:15:34.996Z,2.20
2023-04-01T07:16:34.778Z,2.09
2023-04-01T07:17:34.874Z,2.24
2023-04-01T07:18:34.905Z,2.24
2023-04-01T07:19:34.866Z,2.29
2023-04-01T07:20:35.526Z,2.16
2023-04-01T07:21:34.901Z,2.02
2023-04-01T07:22:34.875Z,2.02
2023-04-01T07:23:34.861Z,1.95
2023-04-01T07:24:34.877Z,2.22
2023-04-01T07:25:35.162Z,2.17
2023-04-01T07:26:34.866Z,2.39
2023-04-01T07:27:34.855Z,2.53
2023-04-01T07:28:34.884Z,2.83
2023-04-01T07:29:34.833Z,2.63
2023-04-01T07:30:34.840Z,1.87
2023-04-01T07:31:34.871Z,2.34
2023-04-01T07:32:36.206Z,2.31
2023-04-01T07:33:34.809Z,2.30
2023-04-01T07:34:34.773Z,2.48
2023-04-01T07:35:35.142Z,2.52
2023-04-01T07:36:34.781Z,2.43
2023-04-01T07:37:34.784Z,2.37
2023-04-01T07:38:34.810Z,2.01
2023-04-01T07:39:34.767Z,2.45
2023-04-01T07:40:34.740Z,2.35
2023-04-01T07:41:34.768Z,2.38
2023-04-01T07:42:34.704Z,2.43
2023-04-01T07:43:34.729Z,2.10
2023-04-01T07:44:34.721Z,2.64
2023-04-01T07:45:35.053Z,2.17
2023-04-01T07:46:34.730Z,2.41
2023-04-01T07:47:34.780Z,2.22
2023-04-01T07:48:34.846Z,2.27
2023-04-01T07:49:34.887Z,2.52
2023-04-01T07:50:34.929Z,2.31
2023-04-01T07:51:34.962Z,2.13
2023-04-01T07:52:35.023Z,2.47
2023-04-01T07:53:35.099Z,2.47
2023-04-01T07:54:35.145Z,2.58
2023-04-01T07:55:35.416Z,2.21
2023-04-01T07:56:35.228Z,2.29
2023-04-01T07:57:35.277Z,2.24
2023-04-01T07:58:35.321Z,2.44
2023-04-01T07:59:35.402Z,2.37
2023-04-01T08:00:35.478Z,2.34
2023-04-01T08:01:35.480Z,2.80
2023-04-01T08:02:35.608Z,2.37
2023-04-01T08:03:35.697Z,2.28
2023-04-01T08:04:35.704Z,1.90
2023-04-01T08:05:35.884Z,1.94
2023-04-01T08:06:35.724Z,2.86
2023-04-01T08:07:35.767Z,2.93
2023-04-01T08:08:35.800Z,2.71
2023-04-01T08:09:35.878Z,2.11
2023-04-01T08:10:35.910Z,2.27
2023-04-01T08:11:35.931Z,2.84
2023-04-01T08:12:35.985Z,2.59
2023-04-01T08:13:36.043Z,2.65
2023-04-01T08:14:36.104Z,2.19
2023-04-01T08:15:36.132Z,2.56
2023-04-01T08:16:36.211Z,2.73
2023-04-01T08:17:36.157Z,2.95
2023-04-01T08:18:36.193Z,2.34
2023-04-01T08:19:36.250Z,2.77
2023-04-01T08:20:36.231Z,2.41
2023-04-01T08:21:36.305Z,2.47
2023-04-01T08:22:36.318Z,2.62
2023-04-01T08:23:36.335Z,2.55
2023-04-01T08:24:46.612Z,2.33
2023-04-01T08:25:37.334Z,2.13
2023-04-01T08:26:36.339Z,2.33
2023-04-01T08:27:36.318Z,2.44
2023-04-01T08:28:36.305Z,2.27
2023-04-01T08:29:36.337Z,2.80
2023-04-01T08:30:36.340Z,2.43
2023-04-01T08:31:36.324Z,2.53
2023-04-01T08:32:36.340Z,2.67
2023-04-01T08:33:36.280Z,2.76
2023-04-01T08:34:36.297Z,2.69
2023-04-01T08:35:38.353Z,2.56
2023-04-01T08:36:36.262Z,2.89
2023-04-01T08:37:36.244Z,2.33
2023-04-01T08:38:36.240Z,2.44
2023-04-01T08:39:36.238Z,2.43
2023-04-01T08:40:36.235Z,2.50
2023-04-01T08:41:36.221Z,2.07
2023-04-01T08:42:36.217Z,2.49
2023-04-01T08:43:36.220Z,2.56
2023-04-01T08:44:36.215Z,2.33
2023-04-01T08:45:36.504Z,2.66
2023-04-01T08:46:36.187Z,2.34
2023-04-01T08:47:36.210Z,2.94
2023-04-01T08:48:36.176Z,2.35
2023-04-01T08:49:36.178Z,2.57
2023-04-01T08:50:36.215Z,2.37
2023-04-01T08:51:36.175Z,2.48
2023-04-01T08:52:36.188Z,2.60
2023-04-01T08:53:36.180Z,2.19
2023-04-01T08:54:36.224Z,2.74
2023-04-01T08:55:36.212Z,2.35
2023-04-01T08:56:36.222Z,2.72
2023-04-01T08:57:36.254Z,2.30
2023-04-01T08:58:36.231Z,2.37
2023-04-01T08:59:36.271Z,2.22
2023-04-01T09:00:36.242Z,1.95
2023-04-01T09:01:36.253Z,2.41
2023-04-01T09:02:36.318Z,2.23
2023-04-01T09:03:36.332Z,2.30
2023-04-01T09:04:36.428Z,2.18
2023-04-01T09:05:36.300Z,2.39
2023-04-01T09:06:36.314Z,2.04
2023-04-01T09:07:36.359Z,2.03
2023-04-01T09:08:36.410Z,2.53
2023-04-01T09:09:36.469Z,2.54
2023-04-01T09:10:36.487Z,1.96
2023-04-01T09:11:36.562Z,1.72
2023-04-01T09:12:36.593Z,2.26
2023-04-01T09:13:36.623Z,1.99
2023-04-01T09:14:36.660Z,2.24
2023-04-01T09:15:37.019Z,2.26
2023-04-01T09:16:36.986Z,2.11
2023-04-01T09:17:36.746Z,2.41
2023-04-01T09:18:36.740Z,2.15
2023-04-01T09:19:36.795Z,2.30
2023-04-01T09:20:36.781Z,2.26
2023-04-01T09:21:36.789Z,2.34
2023-04-01T09:22:36.808Z,2.01
2023-04-01T09:23:36.823Z,1.88
2023-04-01T09:24:36.867Z,2.06
2023-04-01T09:25:36.853Z,1.75
2023-04-01T09:26:36.909Z,2.32
2023-04-01T09:27:36.903Z,1.61
2023-04-01T09:28:36.950Z,1.78
2023-04-01T09:29:36.937Z,2.03
2023-04-01T09:30:37.014Z,1.98
2023-04-01T09:31:37.086Z,1.92
2023-04-01T09:32:37.131Z,1.77
2023-04-01T09:33:37.094Z,1.75
2023-04-01T09:34:37.102Z,1.47
2023-04-01T09:35:37.226Z,1.86
2023-04-01T09:36:37.132Z,1.73
2023-04-01T09:37:37.130Z,1.78
2023-04-01T09:38:37.158Z,1.98
2023-04-01T09:39:37.221Z,1.70
2023-04-01T09:40:37.316Z,1.81
2023-04-01T09:41:37.336Z,1.76
2023-04-01T09:42:37.341Z,2.09
2023-04-01T09:43:37.407Z,2.08
2023-04-01T09:44:37.452Z,1.65
2023-04-01T09:45:37.458Z,1.62
2023-04-01T09:46:37.540Z,1.49
2023-04-01T09:47:37.564Z,1.42
2023-04-01T09:48:37.605Z,1.63
2023-04-01T09:49:37.675Z,1.96
2023-04-01T09:50:37.792Z,1.45
2023-04-01T09:51:37.755Z,1.67
2023-04-01T09:52:37.789Z,1.83
2023-04-01T09:53:37.844Z,2.00
2023-04-01T09:54:37.901Z,1.86
2023-04-01T09:55:37.961Z,2.20
2023-04-01T09:56:37.977Z,1.90
2023-04-01T09:57:38.029Z,1.51
2023-04-01T09:58:43.984Z,1.46
2023-04-01T09:59:39.035Z,1.54
2023-04-01T10:00:38.050Z,1.51
2023-04-01T10:01:38.060Z,1.53
2023-04-01T10:02:38.044Z,1.51
2023-04-01T10:03:38.021Z,1.89
2023-04-01T10:04:37.972Z,1.70
2023-04-01T10:05:38.030Z,1.39
2023-04-01T10:06:38.014Z,1.54
2023-04-01T10:07:37.948Z,1.70
2023-04-01T10:08:37.974Z,1.45
2023-04-01T10:09:37.969Z,1.72
2023-04-01T10:10:37.979Z,1.59
2023-04-01T10:11:37.954Z,1.42
2023-04-01T10:12:37.981Z,1.66
2023-04-01T10:13:38.020Z,1.61
2023-04-01T10:14:38.038Z,1.35
2023-04-01T10:15:38.063Z,1.52
2023-04-01T10:16:38.153Z,1.36
2023-04-01T10:17:38.122Z,1.32
2023-04-01T10:18:38.166Z,1.50
2023-04-01T10:19:38.195Z,1.51
2023-04-01T10:20:38.242Z,1.27
2023-04-01T10:21:38.228Z,1.35
2023-04-01T10:22:38.262Z,1.58
2023-04-01T10:23:38.252Z,1.43
2023-04-01T10:24:38.297Z,1.32
2023-04-01T10:25:38.268Z,1.20
2023-04-01T10:26:38.285Z,1.48
2023-04-01T10:27:38.301Z,1.21
2023-04-01T10:28:38.270Z,1.31
2023-04-01T10:29:38.301Z,1.49
2023-04-01T10:30:38.319Z,0.95
2023-04-01T10:31:38.378Z,1.36
2023-04-01T10:32:38.340Z,1.35
2023-04-01T10:33:38.298Z,1.64
2023-04-01T10:34:38.345Z,1.37
2023-04-01T10:35:38.289Z,1.24
2023-04-01T10:36:38.314Z,1.20
2023-04-01T10:37:38.343Z,0.97
2023-04-01T10:38:38.358Z,1.35
2023-04-01T10:39:38.331Z,1.40
2023-04-01T10:40:38.332Z,0.99
2023-04-01T10:41:38.357Z,1.19
2023-04-01T10:42:38.344Z,1.15
2023-04-01T10:43:38.356Z,1.26
2023-04-01T10:44:38.370Z,1.16
2023-04-01T10:45:38.391Z,1.37
2023-04-01T10:46:38.426Z,1.17
2023-04-01T10:47:38.421Z,1.26
2023-04-01T10:48:38.366Z,1.02
2023-04-01T10:49:38.385Z,1.01
2023-04-01T10:50:38.374Z,1.14
2023-04-01T10:51:38.398Z,1.28
2023-04-01T10:52:38.405Z,1.41
2023-04-01T10:53:38.429Z,1.05
2023-04-01T10:54:38.422Z,1.13
2023-04-01T10:55:38.458Z,1.06
2023-04-01T10:56:38.460Z,1.16
2023-04-01T10:57:38.448Z,0.94
2023-04-01T10:58:38.463Z,0.92
2023-04-01T10:59:38.486Z,0.87
2023-04-01T11:00:38.475Z,1.01
2023-04-01T11:01:38.520Z,1.25
2023-04-01T11:02:38.632Z,1.11
2023-04-01T11:03:38.697Z,1.14
2023-04-01T11:04:38.559Z,1.01
2023-04-01T11:05:38.599Z,1.05
2023-04-01T11:06:38.608Z,0.95
2023-04-01T11:07:38.653Z,0.99
2023-04-01T11:08:38.644Z,1.09
2023-04-01T11:09:38.703Z,1.14
2023-04-01T11:10:38.735Z,1.10
2023-04-01T11:11:38.748Z,1.00
2023-04-01T11:12:38.772Z,0.99
2023-04-01T11:13:38.863Z,0.94
2023-04-01T11:14:38.926Z,0.88
2023-04-01T11:15:38.931Z,1.28
2023-04-01T11:16:39.049Z,1.04
2023-04-01T11:17:39.085Z,0.80
2023-04-01T11:18:39.100Z,0.94
2023-04-01T11:19:39.158Z,0.90
2023-04-01T11:20:39.209Z,0.89
2023-04-01T11:21:39.276Z,1.00
2023-04-01T11:22:39.331Z,0.79
2023-04-01T11:23:39.413Z,1.02
2023-04-01T11:24:39.450Z,0.90
2023-04-01T11:25:39.517Z,1.03
2023-04-01T11:26:39.657Z,0.90
2023-04-01T11:27:40.003Z,0.86
2023-04-01T11:28:39.645Z,0.81
2023-04-01T11:29:42.236Z,0.86
2023-04-01T11:30:40.738Z,0.76
2023-04-01T11:31:39.851Z,1.09
2023-04-01T11:32:39.746Z,1.26
2023-04-01T11:33:39.723Z,0.96
2023-04-01T11:34:39.669Z,0.97
2023-04-01T11:35:39.718Z,0.76
2023-04-01T11:36:39.744Z,1.03
2023-04-01T11:37:39.670Z,1.21
2023-04-01T11:38:39.715Z,0.97
2023-04-01T11:39:39.737Z,0.91
2023-04-01T11:40:39.832Z,1.04
2023-04-01T11:41:39.860Z,0.77
2023-04-01T11:42:39.933Z,0.85
2023-04-01T11:43:39.971Z,0.84
2023-04-01T11:44:40.035Z,0.87
2023-04-01T11:45:40.098Z,0.85
2023-04-01T11:46:40.272Z,1.03
2023-04-01T11:47:40.197Z,0.79
2023-04-01T11:48:40.217Z,0.78
2023-04-01T11:49:40.301Z,0.85
2023-04-01T11:50:40.343Z,0.92
2023-04-01T11:51:40.379Z,0.89
2023-04-01T11:52:40.441Z,0.81
2023-04-01T11:53:40.484Z,0.84
2023-04-01T11:54:40.547Z,0.79
2023-04-01T11:55:40.608Z,1.04
2023-04-01T11:56:40.656Z,0.68
2023-04-01T11:57:40.681Z,0.66
2023-04-01T11:58:40.715Z,0.71
2023-04-01T11:59:41.635Z,1.01
2023-04-01T12:00:40.860Z,0.77
2023-04-01T12:01:40.883Z,0.68
2023-04-01T12:02:41.049Z,0.78
2023-04-01T12:03:41.052Z,0.81
2023-04-01T12:04:41.077Z,2.01
2023-04-01T12:05:41.074Z,0.75
2023-04-01T12:06:41.131Z,0.74
2023-04-01T12:07:41.191Z,0.92
2023-04-01T12:08:41.255Z,0.99
2023-04-01T12:09:41.324Z,0.77
2023-04-01T12:10:41.341Z,0.83
2023-04-01T12:11:41.380Z,0.70
2023-04-01T12:12:47.700Z,0.88
2023-04-01T12:13:42.441Z,1.02
2023-04-01T12:14:41.437Z,0.98
2023-04-01T12:15:41.444Z,1.01
2023-04-01T12:16:41.453Z,0.82
2023-04-01T12:17:41.518Z,0.70
2023-04-01T12:18:41.398Z,0.97
2023-04-01T12:19:41.428Z,0.79
2023-04-01T12:20:41.427Z,0.78
2023-04-01T12:21:41.570Z,0.85
2023-04-01T12:22:41.475Z,0.62
2023-04-01T12:23:41.583Z,0.55
2023-04-01T12:24:41.649Z,0.59
2023-04-01T12:25:41.697Z,0.64
2023-04-01T12:26:41.736Z,0.77
2023-04-01T12:27:41.761Z,0.70
2023-04-01T12:28:41.866Z,0.81
2023-04-01T12:29:41.894Z,0.75
2023-04-01T12:30:41.974Z,1.00
2023-04-01T12:31:42.044Z,0.66
2023-04-01T12:32:42.061Z,0.81
2023-04-01T12:33:42.115Z,0.79
2023-04-01T12:34:42.191Z,0.61
2023-04-01T12:35:42.256Z,0.88
2023-04-01T12:36:42.278Z,0.73
2023-04-01T12:37:42.344Z,0.60
2023-04-01T12:38:42.422Z,0.67
2023-04-01T12:39:42.494Z,0.55
2023-04-01T12:40:42.521Z,0.88
2023-04-01T12:41:42.592Z,0.75
2023-04-01T12:42:42.681Z,0.80
2023-04-01T12:43:42.741Z,0.64
2023-04-01T12:44:42.779Z,0.73
2023-04-01T12:45:42.783Z,0.57
2023-04-01T12:46:42.817Z,0.69
2023-04-01T12:47:42.887Z,0.47
2023-04-01T12:48:42.896Z,0.83
2023-04-01T12:49:42.954Z,0.56
2023-04-01T12:50:43.004Z,0.69
2023-04-01T12:51:43.033Z,1.00
2023-04-01T12:52:43.074Z,0.66
2023-04-01T12:53:43.121Z,0.68
2023-04-01T12:54:43.179Z,0.74
2023-04-01T12:55:43.204Z,0.64
2023-04-01T12:56:43.268Z,0.60
2023-04-01T12:57:43.292Z,0.62
2023-04-01T12:58:43.363Z,0.56
2023-04-01T12:59:43.417Z,0.65
2023-04-01T13:00:45.036Z,0.80
2023-04-01T13:01:43.613Z,0.59
2023-04-01T13:02:43.571Z,0.43
2023-04-01T13:03:43.654Z,0.76
2023-04-01T13:04:43.644Z,0.61
2023-04-01T13:05:43.660Z,0.57
2023-04-01T13:06:44.674Z,0.77
2023-04-01T13:07:43.745Z,0.61
2023-04-01T13:08:43.780Z,0.73
2023-04-01T13:09:44.672Z,0.45
2023-04-01T13:10:43.854Z,0.52
2023-04-01T13:11:43.922Z,0.70
2023-04-01T13:12:43.968Z,1.15
2023-04-01T13:13:43.988Z,0.76
2023-04-01T13:14:44.033Z,0.45
2023-04-01T13:15:44.120Z,0.53
2023-04-01T13:16:44.134Z,0.83
2023-04-01T13:17:44.237Z,0.63
2023-04-01T13:18:44.255Z,0.68
2023-04-01T13:19:48.571Z,0.60
2023-04-01T13:20:45.289Z,0.71